sensor_id;sensor_type;location;lat;lon;timestamp;P1;durP1;ratioP1;P2;durP2;ratioP2
25922;SDS011;13725;51.170;4.442;2023-08-21T00:00:06;6.30;;;1.75;;
25922;SDS011;13725;51.170;4.442;2023-08-21T00:02:32;8.52;;;1.48;;
25922;SDS011;13725;51.170;4.442;2023-08-21T00:04:58;8.63;;;2.03;;
25922;SDS011;13725;51.170;4.442;2023-08-21T00:07:24;9.07;;;2.00;;
25922;SDS011;13725;51.170;4.442;2023-08-21T00:09:50;7.90;;;1.80;;
25922;SDS011;13725;51.170;4.442;2023-08-21T00:12:16;5.05;;;1.77;;
25922;SDS011;13725;51.170;4.442;2023-08-21T00:14:43;7.05;;;1.60;;
25922;SDS011;13725;51.170;4.442;2023-08-21T00:17:08;7.60;;;1.88;;
25922;SDS011;13725;51.170;4.442;2023-08-21T00:19:34;4.40;;;1.55;;
25922;SDS011;13725;51.170;4.442;2023-08-21T00:22:00;9.70;;;1.95;;
25922;SDS011;13725;51.170;4.442;2023-08-21T00:24:26;6.97;;;1.80;;
25922;SDS011;13725;51.170;4.442;2023-08-21T00:26:52;7.57;;;2.20;;
25922;SDS011;13725;51.170;4.442;2023-08-21T00:29:18;10.48;;;1.65;;
25922;SDS011;13725;51.170;4.442;2023-08-21T00:31:44;13.70;;;1.98;;
25922;SDS011;13725;51.170;4.442;2023-08-21T00:34:09;6.35;;;1.70;;
25922;SDS011;13725;51.170;4.442;2023-08-21T00:36:36;4.80;;;1.70;;
25922;SDS011;13725;51.170;4.442;2023-08-21T00:39:02;6.07;;;1.58;;
25922;SDS011;13725;51.170;4.442;2023-08-21T00:41:28;4.80;;;1.65;;
25922;SDS011;13725;51.170;4.442;2023-08-21T00:43:54;7.35;;;1.50;;
25922;SDS011;13725;51.170;4.442;2023-08-21T00:46:20;7.22;;;2.28;;
25922;SDS011;13725;51.170;4.442;2023-08-21T00:48:46;6.05;;;1.55;;
25922;SDS011;13725;51.170;4.442;2023-08-21T00:51:13;6.88;;;1.48;;
25922;SDS011;13725;51.170;4.442;2023-08-21T00:53:41;7.93;;;1.65;;
25922;SDS011;13725;51.170;4.442;2023-08-21T00:56:07;9.50;;;1.58;;
25922;SDS011;13725;51.170;4.442;2023-08-21T00:58:35;5.90;;;2.10;;
25922;SDS011;13725;51.170;4.442;2023-08-21T01:01:01;6.35;;;1.73;;
25922;SDS011;13725;51.170;4.442;2023-08-21T01:03:28;7.43;;;1.98;;
25922;SDS011;13725;51.170;4.442;2023-08-21T01:05:54;10.27;;;1.75;;
25922;SDS011;13725;51.170;4.442;2023-08-21T01:11:23;5.57;;;1.42;;
25922;SDS011;13725;51.170;4.442;2023-08-21T01:16:44;8.07;;;1.88;;
25922;SDS011;13725;51.170;4.442;2023-08-21T01:19:24;9.20;;;1.58;;
25922;SDS011;13725;51.170;4.442;2023-08-21T01:21:57;7.78;;;1.85;;
25922;SDS011;13725;51.170;4.442;2023-08-21T01:24:24;9.13;;;2.03;;
25922;SDS011;13725;51.170;4.442;2023-08-21T01:26:50;8.00;;;1.75;;
25922;SDS011;13725;51.170;4.442;2023-08-21T01:29:15;6.65;;;2.20;;
25922;SDS011;13725;51.170;4.442;2023-08-21T01:31:42;7.25;;;2.20;;
25922;SDS011;13725;51.170;4.442;2023-08-21T01:34:13;5.68;;;1.95;;
25922;SDS011;13725;51.170;4.442;2023-08-21T01:36:40;6.50;;;1.60;;
25922;SDS011;13725;51.170;4.442;2023-08-21T01:39:08;6.82;;;1.60;;
25922;SDS011;13725;51.170;4.442;2023-08-21T01:41:36;6.50;;;2.00;;
25922;SDS011;13725;51.170;4.442;2023-08-21T01:44:02;3.58;;;1.50;;
25922;SDS011;13725;51.170;4.442;2023-08-21T01:46:28;11.80;;;1.95;;
25922;SDS011;13725;51.170;4.442;2023-08-21T01:48:54;6.43;;;1.67;;
25922;SDS011;13725;51.170;4.442;2023-08-21T01:51:20;3.38;;;1.55;;
25922;SDS011;13725;51.170;4.442;2023-08-21T01:53:46;9.15;;;1.83;;
25922;SDS011;13725;51.170;4.442;2023-08-21T01:56:12;6.97;;;1.58;;
25922;SDS011;13725;51.170;4.442;2023-08-21T01:58:37;7.35;;;1.40;;
25922;SDS011;13725;51.170;4.442;2023-08-21T02:01:03;10.73;;;1.95;;
25922;SDS011;13725;51.170;4.442;2023-08-21T02:03:30;6.00;;;1.75;;
25922;SDS011;13725;51.170;4.442;2023-08-21T02:05:56;6.20;;;2.30;;
25922;SDS011;13725;51.170;4.442;2023-08-21T02:08:25;8.15;;;1.92;;
25922;SDS011;13725;51.170;4.442;2023-08-21T02:10:55;4.28;;;1.60;;
25922;SDS011;13725;51.170;4.442;2023-08-21T02:13:21;2.58;;;1.73;;
25922;SDS011;13725;51.170;4.442;2023-08-21T02:15:47;11.35;;;2.00;;
25922;SDS011;13725;51.170;4.442;2023-08-21T02:18:12;6.70;;;2.10;;
25922;SDS011;13725;51.170;4.442;2023-08-21T02:20:38;6.95;;;1.85;;
25922;SDS011;13725;51.170;4.442;2023-08-21T02:23:04;11.40;;;1.90;;
25922;SDS011;13725;51.170;4.442;2023-08-21T02:25:30;10.00;;;1.80;;
25922;SDS011;13725;51.170;4.442;2023-08-21T02:27:56;4.40;;;1.73;;
25922;SDS011;13725;51.170;4.442;2023-08-21T02:30:23;7.97;;;1.67;;
25922;SDS011;13725;51.170;4.442;2023-08-21T02:32:53;7.30;;;1.80;;
25922;SDS011;13725;51.170;4.442;2023-08-21T02:35:22;4.43;;;1.50;;
25922;SDS011;13725;51.170;4.442;2023-08-21T02:37:49;10.15;;;2.70;;
25922;SDS011;13725;51.170;4.442;2023-08-21T02:40:15;4.03;;;1.80;;
25922;SDS011;13725;51.170;4.442;2023-08-21T02:42:40;15.73;;;2.60;;
25922;SDS011;13725;51.170;4.442;2023-08-21T02:45:06;6.25;;;2.85;;
25922;SDS011;13725;51.170;4.442;2023-08-21T02:47:38;12.10;;;2.25;;
25922;SDS011;13725;51.170;4.442;2023-08-21T02:50:05;7.10;;;2.13;;
25922;SDS011;13725;51.170;4.442;2023-08-21T02:52:32;6.63;;;2.30;;
25922;SDS011;13725;51.170;4.442;2023-08-21T02:54:58;4.53;;;2.00;;
25922;SDS011;13725;51.170;4.442;2023-08-21T02:57:25;7.63;;;2.47;;
25922;SDS011;13725;51.170;4.442;2023-08-21T02:59:52;5.80;;;2.00;;
25922;SDS011;13725;51.170;4.442;2023-08-21T03:02:19;5.57;;;2.70;;
25922;SDS011;13725;51.170;4.442;2023-08-21T03:04:44;9.88;;;2.63;;
25922;SDS011;13725;51.170;4.442;2023-08-21T03:07:11;6.93;;;2.45;;
25922;SDS011;13725;51.170;4.442;2023-08-21T03:09:38;7.10;;;3.03;;
25922;SDS011;13725;51.170;4.442;2023-08-21T03:12:05;9.98;;;2.78;;
25922;SDS011;13725;51.170;4.442;2023-08-21T03:14:32;9.70;;;2.35;;
25922;SDS011;13725;51.170;4.442;2023-08-21T03:16:58;7.63;;;2.42;;
25922;SDS011;13725;51.170;4.442;2023-08-21T03:19:24;8.18;;;2.35;;
25922;SDS011;13725;51.170;4.442;2023-08-21T03:21:50;6.95;;;2.25;;
25922;SDS011;13725;51.170;4.442;2023-08-21T03:24:18;7.85;;;2.22;;
25922;SDS011;13725;51.170;4.442;2023-08-21T03:26:44;6.88;;;2.60;;
25922;SDS011;13725;51.170;4.442;2023-08-21T03:29:10;11.10;;;2.38;;
25922;SDS011;13725;51.170;4.442;2023-08-21T03:31:36;6.60;;;2.20;;
25922;SDS011;13725;51.170;4.442;2023-08-21T03:34:01;6.65;;;2.35;;
25922;SDS011;13725;51.170;4.442;2023-08-21T03:36:27;7.65;;;2.00;;
25922;SDS011;13725;51.170;4.442;2023-08-21T03:38:59;6.90;;;2.10;;
25922;SDS011;13725;51.170;4.442;2023-08-21T03:41:31;8.30;;;2.13;;
25922;SDS011;13725;51.170;4.442;2023-08-21T03:43:57;8.43;;;2.60;;
25922;SDS011;13725;51.170;4.442;2023-08-21T03:46:24;9.20;;;1.95;;
25922;SDS011;13725;51.170;4.442;2023-08-21T03:48:50;9.88;;;2.72;;
25922;SDS011;13725;51.170;4.442;2023-08-21T03:51:16;7.25;;;2.20;;
25922;SDS011;13725;51.170;4.442;2023-08-21T03:53:42;8.15;;;2.10;;
25922;SDS011;13725;51.170;4.442;2023-08-21T03:56:09;6.00;;;2.47;;
25922;SDS011;13725;51.170;4.442;2023-08-21T03:58:35;11.45;;;2.60;;
25922;SDS011;13725;51.170;4.442;2023-08-21T04:01:00;9.98;;;2.58;;
25922;SDS011;13725;51.170;4.442;2023-08-21T04:03:26;6.13;;;2.22;;
25922;SDS011;13725;51.170;4.442;2023-08-21T04:05:55;8.25;;;2.60;;
25922;SDS011;13725;51.170;4.442;2023-08-21T04:08:21;8.00;;;2.35;;
25922;SDS011;13725;51.170;4.442;2023-08-21T04:10:48;12.00;;;2.60;;
25922;SDS011;13725;51.170;4.442;2023-08-21T04:13:13;8.10;;;2.25;;
25922;SDS011;13725;51.170;4.442;2023-08-21T04:15:43;5.45;;;2.25;;
25922;SDS011;13725;51.170;4.442;2023-08-21T04:18:10;8.57;;;2.35;;
25922;SDS011;13725;51.170;4.442;2023-08-21T04:20:36;9.05;;;2.28;;
25922;SDS011;13725;51.170;4.442;2023-08-21T04:23:02;13.77;;;2.20;;
25922;SDS011;13725;51.170;4.442;2023-08-21T04:25:28;5.18;;;2.38;;
25922;SDS011;13725;51.170;4.442;2023-08-21T04:27:54;8.80;;;2.33;;
25922;SDS011;13725;51.170;4.442;2023-08-21T04:30:21;7.00;;;2.38;;
25922;SDS011;13725;51.170;4.442;2023-08-21T04:32:47;12.57;;;2.53;;
25922;SDS011;13725;51.170;4.442;2023-08-21T04:35:14;7.80;;;2.15;;
25922;SDS011;13725;51.170;4.442;2023-08-21T04:37:43;6.65;;;2.05;;
25922;SDS011;13725;51.170;4.442;2023-08-21T04:40:12;12.20;;;2.47;;
25922;SDS011;13725;51.170;4.442;2023-08-21T04:42:38;10.55;;;2.97;;
25922;SDS011;13725;51.170;4.442;2023-08-21T04:45:04;11.13;;;2.58;;
25922;SDS011;13725;51.170;4.442;2023-08-21T04:47:33;10.48;;;3.10;;
25922;SDS011;13725;51.170;4.442;2023-08-21T04:49:59;10.07;;;2.28;;
25922;SDS011;13725;51.170;4.442;2023-08-21T04:52:27;10.15;;;2.30;;
25922;SDS011;13725;51.170;4.442;2023-08-21T04:54:53;11.52;;;2.42;;
25922;SDS011;13725;51.170;4.442;2023-08-21T04:57:20;7.22;;;2.13;;
25922;SDS011;13725;51.170;4.442;2023-08-21T04:59:49;8.85;;;1.88;;
25922;SDS011;13725;51.170;4.442;2023-08-21T05:02:14;8.13;;;2.20;;
25922;SDS011;13725;51.170;4.442;2023-08-21T05:04:40;13.52;;;3.05;;
25922;SDS011;13725;51.170;4.442;2023-08-21T05:07:07;11.45;;;2.72;;
25922;SDS011;13725;51.170;4.442;2023-08-21T05:09:33;17.10;;;2.85;;
25922;SDS011;13725;51.170;4.442;2023-08-21T05:11:59;13.13;;;2.97;;
25922;SDS011;13725;51.170;4.442;2023-08-21T05:14:25;13.82;;;3.00;;
25922;SDS011;13725;51.170;4.442;2023-08-21T05:16:51;13.43;;;3.45;;
25922;SDS011;13725;51.170;4.442;2023-08-21T05:19:19;12.80;;;2.72;;
25922;SDS011;13725;51.170;4.442;2023-08-21T05:21:45;16.27;;;3.42;;
25922;SDS011;13725;51.170;4.442;2023-08-21T05:24:11;12.57;;;2.92;;
25922;SDS011;13725;51.170;4.442;2023-08-21T05:26:42;13.30;;;3.30;;
25922;SDS011;13725;51.170;4.442;2023-08-21T05:29:08;12.13;;;4.05;;
25922;SDS011;13725;51.170;4.442;2023-08-21T05:31:34;15.95;;;3.13;;
25922;SDS011;13725;51.170;4.442;2023-08-21T05:33:59;9.10;;;2.95;;
25922;SDS011;13725;51.170;4.442;2023-08-21T05:36:25;10.80;;;2.80;;
25922;SDS011;13725;51.170;4.442;2023-08-21T05:38:51;13.10;;;2.72;;
25922;SDS011;13725;51.170;4.442;2023-08-21T05:41:17;11.27;;;2.55;;
25922;SDS011;13725;51.170;4.442;2023-08-21T05:43:44;11.85;;;3.28;;
25922;SDS011;13725;51.170;4.442;2023-08-21T05:46:11;13.65;;;3.72;;
25922;SDS011;13725;51.170;4.442;2023-08-21T05:48:37;10.30;;;2.75;;
25922;SDS011;13725;51.170;4.442;2023-08-21T05:51:03;12.73;;;3.10;;
25922;SDS011;13725;51.170;4.442;2023-08-21T05:53:30;9.98;;;2.58;;
25922;SDS011;13725;51.170;4.442;2023-08-21T05:55:57;9.25;;;2.80;;
25922;SDS011;13725;51.170;4.442;2023-08-21T05:58:23;9.80;;;2.92;;
25922;SDS011;13725;51.170;4.442;2023-08-21T06:00:48;10.60;;;2.60;;
25922;SDS011;13725;51.170;4.442;2023-08-21T06:03:15;11.25;;;3.25;;
25922;SDS011;13725;51.170;4.442;2023-08-21T06:06:03;8.18;;;2.95;;
25922;SDS011;13725;51.170;4.442;2023-08-21T06:08:29;10.80;;;3.05;;
25922;SDS011;13725;51.170;4.442;2023-08-21T06:10:55;6.57;;;2.83;;
25922;SDS011;13725;51.170;4.442;2023-08-21T06:13:21;14.70;;;3.60;;
25922;SDS011;13725;51.170;4.442;2023-08-21T06:15:49;10.82;;;2.72;;
25922;SDS011;13725;51.170;4.442;2023-08-21T06:18:15;12.07;;;2.75;;
25922;SDS011;13725;51.170;4.442;2023-08-21T06:20:44;13.95;;;3.00;;
25922;SDS011;13725;51.170;4.442;2023-08-21T06:23:10;11.70;;;3.00;;
25922;SDS011;13725;51.170;4.442;2023-08-21T06:25:36;11.10;;;2.55;;
25922;SDS011;13725;51.170;4.442;2023-08-21T06:28:02;11.88;;;2.78;;
25922;SDS011;13725;51.170;4.442;2023-08-21T06:30:29;12.77;;;2.92;;
25922;SDS011;13725;51.170;4.442;2023-08-21T06:32:55;13.15;;;2.90;;
25922;SDS011;13725;51.170;4.442;2023-08-21T06:35:21;7.75;;;2.63;;
25922;SDS011;13725;51.170;4.442;2023-08-21T06:37:47;10.63;;;2.70;;
25922;SDS011;13725;51.170;4.442;2023-08-21T06:40:14;15.70;;;3.00;;
25922;SDS011;13725;51.170;4.442;2023-08-21T06:42:40;10.77;;;3.22;;
25922;SDS011;13725;51.170;4.442;2023-08-21T06:45:06;8.38;;;2.97;;
25922;SDS011;13725;51.170;4.442;2023-08-21T06:47:32;13.98;;;2.90;;
25922;SDS011;13725;51.170;4.442;2023-08-21T06:49:58;7.93;;;2.03;;
25922;SDS011;13725;51.170;4.442;2023-08-21T06:52:25;8.88;;;2.20;;
25922;SDS011;13725;51.170;4.442;2023-08-21T06:54:51;8.15;;;2.35;;
25922;SDS011;13725;51.170;4.442;2023-08-21T06:57:17;8.00;;;2.45;;
25922;SDS011;13725;51.170;4.442;2023-08-21T06:59:43;10.90;;;2.38;;
25922;SDS011;13725;51.170;4.442;2023-08-21T07:02:09;10.80;;;2.50;;
25922;SDS011;13725;51.170;4.442;2023-08-21T07:04:35;12.40;;;2.60;;
25922;SDS011;13725;51.170;4.442;2023-08-21T07:07:00;10.30;;;2.40;;
25922;SDS011;13725;51.170;4.442;2023-08-21T07:09:26;10.38;;;2.60;;
25922;SDS011;13725;51.170;4.442;2023-08-21T07:11:52;10.52;;;2.10;;
25922;SDS011;13725;51.170;4.442;2023-08-21T07:14:19;6.43;;;2.28;;
25922;SDS011;13725;51.170;4.442;2023-08-21T07:16:44;8.05;;;1.70;;
25922;SDS011;13725;51.170;4.442;2023-08-21T07:19:11;11.55;;;2.55;;
25922;SDS011;13725;51.170;4.442;2023-08-21T07:21:37;5.55;;;1.90;;
25922;SDS011;13725;51.170;4.442;2023-08-21T07:24:03;11.00;;;2.22;;
25922;SDS011;13725;51.170;4.442;2023-08-21T07:26:30;7.20;;;2.13;;
25922;SDS011;13725;51.170;4.442;2023-08-21T07:28:55;15.25;;;2.83;;
25922;SDS011;13725;51.170;4.442;2023-08-21T07:31:22;9.05;;;2.72;;
25922;SDS011;13725;51.170;4.442;2023-08-21T07:33:48;11.68;;;2.33;;
25922;SDS011;13725;51.170;4.442;2023-08-21T07:36:13;8.55;;;2.20;;
25922;SDS011;13725;51.170;4.442;2023-08-21T07:38:45;15.20;;;2.20;;
25922;SDS011;13725;51.170;4.442;2023-08-21T07:41:12;13.32;;;2.28;;
25922;SDS011;13725;51.170;4.442;2023-08-21T07:43:39;14.20;;;2.58;;
25922;SDS011;13725;51.170;4.442;2023-08-21T07:46:07;10.57;;;2.45;;
25922;SDS011;13725;51.170;4.442;2023-08-21T07:48:35;8.25;;;1.60;;
25922;SDS011;13725;51.170;4.442;2023-08-21T07:51:01;10.88;;;2.42;;
25922;SDS011;13725;51.170;4.442;2023-08-21T07:53:27;12.27;;;2.30;;
25922;SDS011;13725;51.170;4.442;2023-08-21T07:55:53;13.25;;;2.40;;
25922;SDS011;13725;51.170;4.442;2023-08-21T07:58:19;14.98;;;1.92;;
25922;SDS011;13725;51.170;4.442;2023-08-21T08:00:45;13.35;;;3.22;;
25922;SDS011;13725;51.170;4.442;2023-08-21T08:03:12;9.15;;;2.60;;
25922;SDS011;13725;51.170;4.442;2023-08-21T08:05:39;11.00;;;2.83;;
25922;SDS011;13725;51.170;4.442;2023-08-21T08:08:06;9.88;;;2.90;;
25922;SDS011;13725;51.170;4.442;2023-08-21T08:10:31;8.32;;;2.67;;
25922;SDS011;13725;51.170;4.442;2023-08-21T08:12:57;12.40;;;3.67;;
25922;SDS011;13725;51.170;4.442;2023-08-21T08:15:23;11.10;;;3.50;;
25922;SDS011;13725;51.170;4.442;2023-08-21T08:17:48;12.25;;;3.55;;
25922;SDS011;13725;51.170;4.442;2023-08-21T08:20:19;13.00;;;3.80;;
25922;SDS011;13725;51.170;4.442;2023-08-21T08:22:45;13.88;;;3.63;;
25922;SDS011;13725;51.170;4.442;2023-08-21T08:25:10;10.90;;;3.53;;
25922;SDS011;13725;51.170;4.442;2023-08-21T08:27:37;10.02;;;3.00;;
25922;SDS011;13725;51.170;4.442;2023-08-21T08:32:32;12.00;;;3.92;;
25922;SDS011;13725;51.170;4.442;2023-08-21T08:34:59;10.18;;;3.58;;
25922;SDS011;13725;51.170;4.442;2023-08-21T08:37:25;14.57;;;4.13;;
25922;SDS011;13725;51.170;4.442;2023-08-21T08:39:51;12.15;;;3.95;;
25922;SDS011;13725;51.170;4.442;2023-08-21T08:42:16;11.75;;;3.38;;
25922;SDS011;13725;51.170;4.442;2023-08-21T08:44:43;11.95;;;3.75;;
25922;SDS011;13725;51.170;4.442;2023-08-21T08:47:10;15.13;;;4.13;;
25922;SDS011;13725;51.170;4.442;2023-08-21T08:49:39;12.73;;;3.72;;
25922;SDS011;13725;51.170;4.442;2023-08-21T08:52:05;11.43;;;3.60;;
25922;SDS011;13725;51.170;4.442;2023-08-21T08:54:33;10.40;;;3.72;;
25922;SDS011;13725;51.170;4.442;2023-08-21T08:57:01;9.48;;;2.45;;
25922;SDS011;13725;51.170;4.442;2023-08-21T08:59:29;6.47;;;2.35;;
25922;SDS011;13725;51.170;4.442;2023-08-21T09:01:56;7.10;;;2.22;;
25922;SDS011;13725;51.170;4.442;2023-08-21T09:04:22;6.57;;;1.90;;
25922;SDS011;13725;51.170;4.442;2023-08-21T09:06:48;7.32;;;1.75;;
25922;SDS011;13725;51.170;4.442;2023-08-21T09:09:13;7.45;;;1.80;;
25922;SDS011;13725;51.170;4.442;2023-08-21T09:11:42;6.85;;;2.00;;
25922;SDS011;13725;51.170;4.442;2023-08-21T09:14:10;3.38;;;0.95;;
25922;SDS011;13725;51.170;4.442;2023-08-21T09:16:37;6.63;;;1.50;;
25922;SDS011;13725;51.170;4.442;2023-08-21T09:19:22;4.63;;;1.40;;
25922;SDS011;13725;51.170;4.442;2023-08-21T09:21:49;6.78;;;1.85;;
25922;SDS011;13725;51.170;4.442;2023-08-21T09:24:15;8.75;;;2.00;;
25922;SDS011;13725;51.170;4.442;2023-08-21T09:26:40;6.68;;;1.58;;
25922;SDS011;13725;51.170;4.442;2023-08-21T09:29:06;5.88;;;1.73;;
25922;SDS011;13725;51.170;4.442;2023-08-21T09:31:32;7.43;;;2.28;;
25922;SDS011;13725;51.170;4.442;2023-08-21T09:33:59;7.03;;;2.28;;
25922;SDS011;13725;51.170;4.442;2023-08-21T09:36:30;13.93;;;2.38;;
25922;SDS011;13725;51.170;4.442;2023-08-21T09:38:56;10.30;;;2.47;;
25922;SDS011;13725;51.170;4.442;2023-08-21T09:41:22;8.77;;;2.30;;
25922;SDS011;13725;51.170;4.442;2023-08-21T09:43:48;9.75;;;2.33;;
25922;SDS011;13725;51.170;4.442;2023-08-21T09:46:15;6.50;;;2.30;;
25922;SDS011;13725;51.170;4.442;2023-08-21T09:48:52;8.40;;;2.10;;
25922;SDS011;13725;51.170;4.442;2023-08-21T09:51:18;6.43;;;2.08;;
25922;SDS011;13725;51.170;4.442;2023-08-21T09:53:44;3.20;;;1.48;;
25922;SDS011;13725;51.170;4.442;2023-08-21T09:56:11;5.97;;;1.83;;
25922;SDS011;13725;51.170;4.442;2023-08-21T09:58:37;6.18;;;1.88;;
25922;SDS011;13725;51.170;4.442;2023-08-21T10:01:06;3.35;;;1.35;;
25922;SDS011;13725;51.170;4.442;2023-08-21T10:03:40;5.15;;;1.20;;
25922;SDS011;13725;51.170;4.442;2023-08-21T10:06:10;3.95;;;1.00;;
25922;SDS011;13725;51.170;4.442;2023-08-21T10:12:18;8.50;;;1.75;;
25922;SDS011;13725;51.170;4.442;2023-08-21T10:14:45;4.88;;;1.83;;
25922;SDS011;13725;51.170;4.442;2023-08-21T10:17:11;5.68;;;1.40;;
25922;SDS011;13725;51.170;4.442;2023-08-21T10:19:38;5.22;;;1.23;;
25922;SDS011;13725;51.170;4.442;2023-08-21T10:22:03;3.15;;;1.00;;
25922;SDS011;13725;51.170;4.442;2023-08-21T10:24:34;3.28;;;1.15;;
25922;SDS011;13725;51.170;4.442;2023-08-21T10:27:06;4.70;;;1.17;;
25922;SDS011;13725;51.170;4.442;2023-08-21T10:29:32;5.05;;;1.33;;
25922;SDS011;13725;51.170;4.442;2023-08-21T10:31:59;2.15;;;1.00;;
25922;SDS011;13725;51.170;4.442;2023-08-21T10:34:35;2.42;;;0.90;;
25922;SDS011;13725;51.170;4.442;2023-08-21T10:39:31;5.45;;;1.40;;
25922;SDS011;13725;51.170;4.442;2023-08-21T10:42:02;2.13;;;0.98;;
25922;SDS011;13725;51.170;4.442;2023-08-21T10:44:47;3.75;;;1.30;;
25922;SDS011;13725;51.170;4.442;2023-08-21T10:49:47;2.70;;;1.02;;
25922;SDS011;13725;51.170;4.442;2023-08-21T10:52:14;3.83;;;1.17;;
25922;SDS011;13725;51.170;4.442;2023-08-21T10:54:48;2.65;;;1.00;;
25922;SDS011;13725;51.170;4.442;2023-08-21T10:57:16;2.55;;;0.80;;
25922;SDS011;13725;51.170;4.442;2023-08-21T10:59:49;2.85;;;0.85;;
25922;SDS011;13725;51.170;4.442;2023-08-21T11:02:19;3.78;;;0.80;;
25922;SDS011;13725;51.170;4.442;2023-08-21T11:04:44;1.35;;;0.68;;
25922;SDS011;13725;51.170;4.442;2023-08-21T11:07:16;2.70;;;0.75;;
25922;SDS011;13725;51.170;4.442;2023-08-21T11:09:43;4.03;;;0.80;;
25922;SDS011;13725;51.170;4.442;2023-08-21T11:12:10;2.75;;;0.70;;
25922;SDS011;13725;51.170;4.442;2023-08-21T11:14:37;2.17;;;0.80;;
25922;SDS011;13725;51.170;4.442;2023-08-21T11:17:04;2.35;;;0.80;;
25922;SDS011;13725;51.170;4.442;2023-08-21T11:19:30;0.90;;;0.40;;
25922;SDS011;13725;51.170;4.442;2023-08-21T11:21:57;2.25;;;0.52;;
25922;SDS011;13725;51.170;4.442;2023-08-21T11:24:38;2.38;;;0.65;;
25922;SDS011;13725;51.170;4.442;2023-08-21T11:27:05;0.98;;;0.30;;
25922;SDS011;13725;51.170;4.442;2023-08-21T11:29:42;1.05;;;0.50;;
25922;SDS011;13725;51.170;4.442;2023-08-21T11:32:13;2.42;;;0.50;;
25922;SDS011;13725;51.170;4.442;2023-08-21T11:34:52;0.68;;;0.45;;
25922;SDS011;13725;51.170;4.442;2023-08-21T11:37:24;3.65;;;0.45;;
25922;SDS011;13725;51.170;4.442;2023-08-21T11:39:52;1.95;;;0.60;;
25922;SDS011;13725;51.170;4.442;2023-08-21T11:42:20;3.28;;;0.52;;
25922;SDS011;13725;51.170;4.442;2023-08-21T11:44:51;2.78;;;0.80;;
25922;SDS011;13725;51.170;4.442;2023-08-21T11:47:18;1.60;;;0.52;;
25922;SDS011;13725;51.170;4.442;2023-08-21T11:49:46;2.40;;;0.40;;
25922;SDS011;13725;51.170;4.442;2023-08-21T11:52:18;1.55;;;0.40;;
25922;SDS011;13725;51.170;4.442;2023-08-21T11:54:49;1.25;;;0.25;;
25922;SDS011;13725;51.170;4.442;2023-08-21T11:57:16;3.22;;;0.80;;
25922;SDS011;13725;51.170;4.442;2023-08-21T11:59:43;1.13;;;0.50;;
25922;SDS011;13725;51.170;4.442;2023-08-21T12:02:16;1.20;;;0.60;;
25922;SDS011;13725;51.170;4.442;2023-08-21T12:04:44;3.40;;;0.77;;
25922;SDS011;13725;51.170;4.442;2023-08-21T12:07:10;4.47;;;0.77;;
25922;SDS011;13725;51.170;4.442;2023-08-21T12:09:37;1.13;;;0.40;;
25922;SDS011;13725;51.170;4.442;2023-08-21T12:12:03;2.60;;;0.57;;
25922;SDS011;13725;51.170;4.442;2023-08-21T12:14:29;4.05;;;0.70;;
25922;SDS011;13725;51.170;4.442;2023-08-21T12:16:55;1.75;;;0.43;;
25922;SDS011;13725;51.170;4.442;2023-08-21T12:19:24;3.47;;;0.50;;
25922;SDS011;13725;51.170;4.442;2023-08-21T12:21:50;2.28;;;0.60;;
25922;SDS011;13725;51.170;4.442;2023-08-21T12:24:16;1.67;;;0.65;;
25922;SDS011;13725;51.170;4.442;2023-08-21T12:26:42;3.83;;;0.73;;
25922;SDS011;13725;51.170;4.442;2023-08-21T12:29:08;3.70;;;0.60;;
25922;SDS011;13725;51.170;4.442;2023-08-21T12:31:34;2.58;;;0.70;;
25922;SDS011;13725;51.170;4.442;2023-08-21T12:34:00;2.42;;;0.60;;
25922;SDS011;13725;51.170;4.442;2023-08-21T12:36:25;2.85;;;0.90;;
25922;SDS011;13725;51.170;4.442;2023-08-21T12:38:51;3.72;;;0.60;;
25922;SDS011;13725;51.170;4.442;2023-08-21T12:41:18;3.30;;;0.63;;
25922;SDS011;13725;51.170;4.442;2023-08-21T12:43:44;3.58;;;0.75;;
25922;SDS011;13725;51.170;4.442;2023-08-21T12:46:09;3.20;;;0.80;;
25922;SDS011;13725;51.170;4.442;2023-08-21T12:48:35;5.95;;;0.70;;
25922;SDS011;13725;51.170;4.442;2023-08-21T12:51:01;1.27;;;0.70;;
25922;SDS011;13725;51.170;4.442;2023-08-21T12:53:28;2.55;;;0.70;;
25922;SDS011;13725;51.170;4.442;2023-08-21T12:55:53;5.45;;;1.00;;
25922;SDS011;13725;51.170;4.442;2023-08-21T12:58:19;3.78;;;1.20;;
25922;SDS011;13725;51.170;4.442;2023-08-21T13:00:45;2.08;;;0.68;;
25922;SDS011;13725;51.170;4.442;2023-08-21T13:03:10;5.15;;;0.73;;
25922;SDS011;13725;51.170;4.442;2023-08-21T13:05:37;2.72;;;0.80;;
25922;SDS011;13725;51.170;4.442;2023-08-21T13:08:03;2.97;;;0.90;;
25922;SDS011;13725;51.170;4.442;2023-08-21T13:10:30;3.00;;;0.60;;
25922;SDS011;13725;51.170;4.442;2023-08-21T13:12:56;2.65;;;0.85;;
25922;SDS011;13725;51.170;4.442;2023-08-21T13:15:21;2.22;;;0.70;;
25922;SDS011;13725;51.170;4.442;2023-08-21T13:17:47;3.42;;;0.85;;
25922;SDS011;13725;51.170;4.442;2023-08-21T13:20:13;4.90;;;1.00;;
25922;SDS011;13725;51.170;4.442;2023-08-21T13:22:48;2.70;;;0.73;;
25922;SDS011;13725;51.170;4.442;2023-08-21T13:25:20;2.00;;;0.90;;
25922;SDS011;13725;51.170;4.442;2023-08-21T13:27:48;1.58;;;0.65;;
25922;SDS011;13725;51.170;4.442;2023-08-21T13:30:14;2.17;;;0.70;;
25922;SDS011;13725;51.170;4.442;2023-08-21T13:32:40;3.25;;;1.20;;
25922;SDS011;13725;51.170;4.442;2023-08-21T13:35:06;3.03;;;1.27;;
25922;SDS011;13725;51.170;4.442;2023-08-21T13:37:37;3.38;;;1.10;;
25922;SDS011;13725;51.170;4.442;2023-08-21T13:40:04;1.67;;;0.85;;
25922;SDS011;13725;51.170;4.442;2023-08-21T13:42:43;2.08;;;1.00;;
25922;SDS011;13725;51.170;4.442;2023-08-21T13:45:11;6.18;;;1.50;;
25922;SDS011;13725;51.170;4.442;2023-08-21T13:47:41;4.05;;;1.50;;
25922;SDS011;13725;51.170;4.442;2023-08-21T13:50:08;3.78;;;1.63;;
25922;SDS011;13725;51.170;4.442;2023-08-21T13:52:35;3.83;;;1.67;;
25922;SDS011;13725;51.170;4.442;2023-08-21T13:55:01;5.70;;;1.13;;
25922;SDS011;13725;51.170;4.442;2023-08-21T13:57:28;7.22;;;1.10;;
25922;SDS011;13725;51.170;4.442;2023-08-21T13:59:54;2.58;;;1.05;;
25922;SDS011;13725;51.170;4.442;2023-08-21T14:02:19;2.78;;;1.10;;
25922;SDS011;13725;51.170;4.442;2023-08-21T14:04:45;4.57;;;0.90;;
25922;SDS011;13725;51.170;4.442;2023-08-21T14:07:12;3.35;;;1.10;;
25922;SDS011;13725;51.170;4.442;2023-08-21T14:09:38;4.45;;;1.27;;
25922;SDS011;13725;51.170;4.442;2023-08-21T14:12:04;3.30;;;1.35;;
25922;SDS011;13725;51.170;4.442;2023-08-21T14:14:32;3.60;;;1.20;;
25922;SDS011;13725;51.170;4.442;2023-08-21T14:17:02;7.45;;;1.88;;
25922;SDS011;13725;51.170;4.442;2023-08-21T14:19:29;6.25;;;1.30;;
25922;SDS011;13725;51.170;4.442;2023-08-21T14:21:57;6.10;;;1.23;;
25922;SDS011;13725;51.170;4.442;2023-08-21T14:24:23;5.90;;;1.50;;
25922;SDS011;13725;51.170;4.442;2023-08-21T14:26:48;5.45;;;1.27;;
25922;SDS011;13725;51.170;4.442;2023-08-21T14:29:14;5.18;;;1.50;;
25922;SDS011;13725;51.170;4.442;2023-08-21T14:31:40;5.35;;;1.60;;
25922;SDS011;13725;51.170;4.442;2023-08-21T14:34:06;4.10;;;1.67;;
25922;SDS011;13725;51.170;4.442;2023-08-21T14:36:31;4.53;;;2.20;;
25922;SDS011;13725;51.170;4.442;2023-08-21T14:38:57;5.70;;;1.85;;
25922;SDS011;13725;51.170;4.442;2023-08-21T14:41:24;13.93;;;4.40;;
25922;SDS011;13725;51.170;4.442;2023-08-21T14:43:50;3.10;;;1.52;;
25922;SDS011;13725;51.170;4.442;2023-08-21T14:46:15;5.32;;;1.88;;
25922;SDS011;13725;51.170;4.442;2023-08-21T14:48:41;5.78;;;2.17;;
25922;SDS011;13725;51.170;4.442;2023-08-21T14:51:07;7.50;;;1.48;;
25922;SDS011;13725;51.170;4.442;2023-08-21T14:53:33;13.93;;;3.60;;
25922;SDS011;13725;51.170;4.442;2023-08-21T14:55:58;4.28;;;1.67;;
25922;SDS011;13725;51.170;4.442;2023-08-21T14:58:24;5.15;;;1.80;;